地図

経路データ

SID SEASON NUMBER BASIN SUBBASIN NAME ISO_TIME NATURE LAT LON WMO_WIND WMO_PRES WMO_AGENCY TRACK_TYPE DIST2LAND LANDFALL IFLAG USA_AGENCY USA_ATCF_ID USA_LAT USA_LON USA_RECORD USA_STATUS USA_WIND USA_PRES USA_SSHS USA_R34_NE USA_R34_SE USA_R34_SW USA_R34_NW USA_R50_NE USA_R50_SE USA_R50_SW USA_R50_NW USA_R64_NE USA_R64_SE USA_R64_SW USA_R64_NW USA_POCI USA_ROCI USA_RMW USA_EYE TOKYO_LAT TOKYO_LON TOKYO_GRADE TOKYO_WIND TOKYO_PRES TOKYO_R50_DIR TOKYO_R50_LONG TOKYO_R50_SHORT TOKYO_R30_DIR TOKYO_R30_LONG TOKYO_R30_SHORT TOKYO_LAND CMA_LAT CMA_LON CMA_CAT CMA_WIND CMA_PRES HKO_LAT HKO_LON HKO_CAT HKO_WIND HKO_PRES NEWDELHI_LAT NEWDELHI_LON NEWDELHI_GRADE NEWDELHI_WIND NEWDELHI_PRES NEWDELHI_CI NEWDELHI_DP NEWDELHI_POCI REUNION_LAT REUNION_LON REUNION_TYPE REUNION_WIND REUNION_PRES REUNION_TNUM REUNION_CI REUNION_RMW REUNION_R34_NE REUNION_R34_SE REUNION_R34_SW REUNION_R34_NW REUNION_R50_NE REUNION_R50_SE REUNION_R50_SW REUNION_R50_NW REUNION_R64_NE REUNION_R64_SE REUNION_R64_SW REUNION_R64_NW BOM_LAT BOM_LON BOM_TYPE BOM_WIND BOM_PRES BOM_TNUM BOM_CI BOM_RMW BOM_R34_NE BOM_R34_SE BOM_R34_SW BOM_R34_NW BOM_R50_NE BOM_R50_SE BOM_R50_SW BOM_R50_NW BOM_R64_NE BOM_R64_SE BOM_R64_SW BOM_R64_NW BOM_ROCI BOM_POCI BOM_EYE BOM_POS_METHOD BOM_PRES_METHOD NADI_LAT NADI_LON NADI_CAT NADI_WIND NADI_PRES WELLINGTON_LAT WELLINGTON_LON WELLINGTON_WIND WELLINGTON_PRES DS824_LAT DS824_LON DS824_STAGE DS824_WIND DS824_PRES TD9636_LAT TD9636_LON TD9636_STAGE TD9636_WIND TD9636_PRES TD9635_LAT TD9635_LON TD9635_WIND TD9635_PRES TD9635_ROCI NEUMANN_LAT NEUMANN_LON NEUMANN_CLASS NEUMANN_WIND NEUMANN_PRES MLC_LAT MLC_LON MLC_CLASS MLC_WIND MLC_PRES USA_GUST BOM_GUST BOM_GUST_PER REUNION_GUST REUNION_GUST_PER USA_SEAHGT USA_SEARAD_NE USA_SEARAD_SE USA_SEARAD_SW USA_SEARAD_NW STORM_SPEED STORM_DIR
1992255N19247 1992 84 EP MM PAINE 1992-09-11 00:00:00 TS 18.7000 -112.800 30 1012 hurdat_epa main 552 552 O_____________ hurdat_epa EP191992 18.7000 -112.800 TD 30 1012 -1 11 260
1992255N19247 1992 84 EP MM PAINE 1992-09-11 03:00:00 TS 18.6029 -113.358 main 596 596 P_____________ EP191992 18.6029 -113.358 TD 30 1010 -1 11 259
1992255N19247 1992 84 EP MM PAINE 1992-09-11 06:00:00 TS 18.5000 -113.900 30 1009 hurdat_epa main 637 637 O_____________ hurdat_epa EP191992 18.5000 -113.900 TD 30 1009 -1 10 258
1992255N19247 1992 84 EP MM PAINE 1992-09-11 09:00:00 TS 18.3921 -114.427 main 680 680 P_____________ EP191992 18.3921 -114.427 TD 30 1008 -1 11 259
1992255N19247 1992 84 EP MM PAINE 1992-09-11 12:00:00 TS 18.3000 -115.000 30 1008 hurdat_epa main 731 731 O_____________ hurdat_epa EP191992 18.3000 -115.000 TD 30 1008 -1 12 263
1992255N19247 1992 84 EP MM PAINE 1992-09-11 15:00:00 TS 18.2422 -115.655 main 792 792 P_____________ EP191992 18.2422 -115.655 TD 32 1006 -1 13 266
1992255N19247 1992 84 EP MM PAINE 1992-09-11 18:00:00 TS 18.2000 -116.400 35 1005 hurdat_epa main 848 848 O_____________ hurdat_epa EP191992 18.2000 -116.400 TS 35 1005 0 15 267
1992255N19247 1992 84 EP MM PAINE 1992-09-11 21:00:00 TS 18.1577 -117.250 main 897 897 P_____________ EP191992 18.1577 -117.250 TS 37 1004 0 16 266
1992255N19247 1992 84 EP MM PAINE 1992-09-12 00:00:00 TS 18.1000 -118.100 40 1003 hurdat_epa main 964 964 O_____________ hurdat_epa EP191992 18.1000 -118.100 TS 40 1003 0 15 265
1992255N19247 1992 84 EP MM PAINE 1992-09-12 03:00:00 TS 18.0148 -118.852 main 1027 1027 P_____________ EP191992 18.0148 -118.852 TS 42 1002 0 13 261
1992255N19247 1992 84 EP MM PAINE 1992-09-12 06:00:00 TS 17.9000 -119.500 45 1001 hurdat_epa main 1079 1079 O_____________ hurdat_epa EP191992 17.9000 -119.500 TS 45 1001 0 12 258
1992255N19247 1992 84 EP MM PAINE 1992-09-12 09:00:00 TS 17.7648 -120.067 main 1131 1131 P_____________ EP191992 17.7648 -120.067 TS 47 999 0 10 253
1992255N19247 1992 84 EP MM PAINE 1992-09-12 12:00:00 TS 17.6000 -120.500 50 998 hurdat_epa main 1177 1177 O_____________ hurdat_epa EP191992 17.6000 -120.500 TS 50 998 0 8 242
1992255N19247 1992 84 EP MM PAINE 1992-09-12 15:00:00 TS 17.3923 -120.795 main 1215 1215 P_____________ EP191992 17.3923 -120.795 TS 50 997 0 6 230
1992255N19247 1992 84 EP MM PAINE 1992-09-12 18:00:00 TS 17.2000 -121.000 50 996 hurdat_epa main 1246 1246 O_____________ hurdat_epa EP191992 17.2000 -121.000 TS 50 996 0 5 229
1992255N19247 1992 84 EP MM PAINE 1992-09-12 21:00:00 TS 17.0624 -121.192 main 1269 1269 P_____________ EP191992 17.0624 -121.192 TS 52 995 0 4 242
1992255N19247 1992 84 EP MM PAINE 1992-09-13 00:00:00 TS 17.0000 -121.400 55 994 hurdat_epa main 1292 1292 O_____________ hurdat_epa EP191992 17.0000 -121.400 TS 55 994 0 5 264
1992255N19247 1992 84 EP MM PAINE 1992-09-13 03:00:00 TS 17.0126 -121.700 main 1316 1316 P_____________ EP191992 17.0126 -121.700 TS 57 993 0 6 280
1992255N19247 1992 84 EP MM PAINE 1992-09-13 06:00:00 TS 17.1000 -122.000 60 992 hurdat_epa main 1331 1331 O_____________ hurdat_epa EP191992 17.1000 -122.000 TS 60 992 0 5 294
1992255N19247 1992 84 EP MM PAINE 1992-09-13 09:00:00 TS 17.2274 -122.215 main 1340 1333 P_____________ EP191992 17.2274 -122.215 TS 60 991 0 5 308
1992255N19247 1992 84 EP MM PAINE 1992-09-13 12:00:00 TS 17.4000 -122.400 60 990 hurdat_epa main 1342 1342 O_____________ hurdat_epa EP191992 17.4000 -122.400 TS 60 990 0 5 315
1992255N19247 1992 84 EP MM PAINE 1992-09-13 15:00:00 TS 17.6000 -122.607 main 1344 1344 P_____________ EP191992 17.6000 -122.607 TS 62 988 0 6 316
1992255N19247 1992 84 EP MM PAINE 1992-09-13 18:00:00 TS 17.8000 -122.800 65 987 hurdat_epa main 1347 1347 O_____________ hurdat_epa EP191992 17.8000 -122.800 HU 65 987 1 5 316
1992255N19247 1992 84 EP MM PAINE 1992-09-13 21:00:00 TS 17.9650 -122.973 main 1350 1350 P_____________ EP191992 17.9650 -122.973 HU 65 987 1 4 317
1992255N19247 1992 84 EP MM PAINE 1992-09-14 00:00:00 TS 18.1000 -123.100 65 987 hurdat_epa main 1352 1343 O_____________ hurdat_epa EP191992 18.1000 -123.100 HU 65 987 1 3 322
1992255N19247 1992 84 EP MM PAINE 1992-09-14 03:00:00 TS 18.2150 -123.180 main 1350 1341 P_____________ EP191992 18.2150 -123.180 HU 65 987 1 2 333
1992255N19247 1992 84 EP MM PAINE 1992-09-14 06:00:00 TS 18.3000 -123.200 65 987 hurdat_epa main 1341 1333 O_____________ hurdat_epa EP191992 18.3000 -123.200 HU 65 987 1 2 0
1992255N19247 1992 84 EP MM PAINE 1992-09-14 09:00:00 TS 18.3650 -123.173 main 1333 1326 P_____________ EP191992 18.3650 -123.173 HU 65 987 1 1 43
1992255N19247 1992 84 EP MM PAINE 1992-09-14 12:00:00 TS 18.4000 -123.100 65 987 hurdat_epa main 1326 1319 O_____________ hurdat_epa EP191992 18.4000 -123.100 HU 65 987 1 2 74
1992255N19247 1992 84 EP MM PAINE 1992-09-14 15:00:00 TS 18.4075 -123.015 main 1319 1312 P_____________ EP191992 18.4075 -123.015 HU 62 987 0 2 90
1992255N19247 1992 84 EP MM PAINE 1992-09-14 18:00:00 TS 18.4000 -122.900 60 988 hurdat_epa main 1312 1306 O_____________ hurdat_epa EP191992 18.4000 -122.900 TS 60 988 0 3 90
1992255N19247 1992 84 EP MM PAINE 1992-09-14 21:00:00 TS 18.4075 -122.743 main 1299 1290 P_____________ EP191992 18.4075 -122.743 TS 60 989 0 3 90
1992255N19247 1992 84 EP MM PAINE 1992-09-15 00:00:00 TS 18.4000 -122.600 60 990 hurdat_epa main 1290 1281 O_____________ hurdat_epa EP191992 18.4000 -122.600 TS 60 990 0 2 102
1992255N19247 1992 84 EP MM PAINE 1992-09-15 03:00:00 TS 18.3650 -122.535 main 1281 1281 P_____________ EP191992 18.3650 -122.535 TS 57 992 0 1 137
1992255N19247 1992 84 EP MM PAINE 1992-09-15 06:00:00 TS 18.3000 -122.500 55 994 hurdat_epa main 1288 1288 O_____________ hurdat_epa EP191992 18.3000 -122.500 TS 55 994 0 2 154
1992255N19247 1992 84 EP MM PAINE 1992-09-15 09:00:00 TS 18.2225 -122.458 main 1295 1286 P_____________ EP191992 18.2225 -122.458 TS 52 995 0 2 153
1992255N19247 1992 84 EP MM PAINE 1992-09-15 12:00:00 TS 18.1000 -122.400 50 997 hurdat_epa main 1293 1291 O_____________ hurdat_epa EP191992 18.1000 -122.400 TS 50 997 0 3 155
1992255N19247 1992 84 EP MM PAINE 1992-09-15 15:00:00 TS 17.9150 -122.307 main 1298 1297 P_____________ EP191992 17.9150 -122.307 TS 47 999 0 4 155
1992255N19247 1992 84 EP MM PAINE 1992-09-15 18:00:00 TS 17.7000 -122.200 45 1001 hurdat_epa main 1304 1303 O_____________ hurdat_epa EP191992 17.7000 -122.200 TS 45 1001 0 5 155
1992255N19247 1992 84 EP MM PAINE 1992-09-15 21:00:00 TS 17.5000 -122.100 main 1310 1309 P_____________ EP191992 17.5000 -122.100 TS 42 1002 0 4 155
1992255N19247 1992 84 EP MM PAINE 1992-09-16 00:00:00 TS 17.3000 -122.000 40 1004 hurdat_epa main 1317 1316 O_____________ hurdat_epa EP191992 17.3000 -122.000 TS 40 1004 0 5 152
1992255N19247 1992 84 EP MM PAINE 1992-09-16 03:00:00 TS 17.0850 -121.870 main 1324 1323 P_____________ EP191992 17.0850 -121.870 TS 37 1005 0 4 155
1992255N19247 1992 84 EP MM PAINE 1992-09-16 06:00:00 TS 16.9000 -121.800 35 1007 hurdat_epa main 1331 1331 O_____________ hurdat_epa EP191992 16.9000 -121.800 TS 35 1007 0 3 0
1992255N19247 1992 84 EP MM PAINE 1992-09-16 09:00:00 TS 16.7800 -121.860 main 1346 1346 P_____________ EP191992 16.7800 -121.860 TS 35 1008 0 3 224
1992255N19247 1992 84 EP MM PAINE 1992-09-16 12:00:00 TS 16.7000 -122.000 35 1009 hurdat_epa main 1362 O_____________ hurdat_epa EP191992 16.7000 -122.000 TS 35 1009 0 3 239

IBTrACS Databaseについて

本データベースは、米国NOAAが公開する1842年以降の世界の熱帯低気圧のベストトラックデータアーカイブInternational Best Track Archive for Climate Stewardship (IBTrACS)を、ウェブで閲覧しやすい形式に変換したものです。

最終更新日:2021-12-08